sensor_id;sensor_type;location;lat;lon;timestamp;P1;durP1;ratioP1;P2;durP2;ratioP2
51248;SDS011;39642;47.556;18.728;2022-09-27T00:01:39;11.52;;;5.10;;
51248;SDS011;39642;47.556;18.728;2022-09-27T00:04:05;11.77;;;4.50;;
51248;SDS011;39642;47.556;18.728;2022-09-27T00:06:31;12.37;;;4.90;;
51248;SDS011;39642;47.556;18.728;2022-09-27T00:08:57;11.23;;;5.15;;
51248;SDS011;39642;47.556;18.728;2022-09-27T00:11:34;11.68;;;4.62;;
51248;SDS011;39642;47.556;18.728;2022-09-27T00:14:02;11.63;;;5.00;;
51248;SDS011;39642;47.556;18.728;2022-09-27T00:16:31;11.73;;;4.97;;
51248;SDS011;39642;47.556;18.728;2022-09-27T00:18:59;11.32;;;4.78;;
51248;SDS011;39642;47.556;18.728;2022-09-27T00:21:27;11.85;;;4.72;;
51248;SDS011;39642;47.556;18.728;2022-09-27T00:23:55;10.98;;;4.72;;
51248;SDS011;39642;47.556;18.728;2022-09-27T00:26:22;11.48;;;5.03;;
51248;SDS011;39642;47.556;18.728;2022-09-27T00:28:48;10.95;;;4.90;;
51248;SDS011;39642;47.556;18.728;2022-09-27T00:31:18;11.52;;;4.32;;
51248;SDS011;39642;47.556;18.728;2022-09-27T00:33:49;13.85;;;4.80;;
51248;SDS011;39642;47.556;18.728;2022-09-27T00:36:18;11.70;;;4.82;;
51248;SDS011;39642;47.556;18.728;2022-09-27T00:38:45;11.10;;;4.82;;
51248;SDS011;39642;47.556;18.728;2022-09-27T00:41:31;11.12;;;4.55;;
51248;SDS011;39642;47.556;18.728;2022-09-27T00:52:18;11.20;;;4.68;;
51248;SDS011;39642;47.556;18.728;2022-09-27T00:54:49;11.15;;;4.55;;
51248;SDS011;39642;47.556;18.728;2022-09-27T00:57:20;11.25;;;4.60;;
51248;SDS011;39642;47.556;18.728;2022-09-27T00:59:52;11.93;;;4.87;;
51248;SDS011;39642;47.556;18.728;2022-09-27T01:02:22;10.48;;;4.32;;
51248;SDS011;39642;47.556;18.728;2022-09-27T01:04:48;10.23;;;4.22;;
51248;SDS011;39642;47.556;18.728;2022-09-27T01:07:15;11.02;;;4.65;;
51248;SDS011;39642;47.556;18.728;2022-09-27T01:09:41;10.65;;;4.35;;
51248;SDS011;39642;47.556;18.728;2022-09-27T01:26:00;11.48;;;4.65;;
51248;SDS011;39642;47.556;18.728;2022-09-27T01:28:50;11.63;;;4.85;;
51248;SDS011;39642;47.556;18.728;2022-09-27T01:44:53;11.48;;;4.75;;
51248;SDS011;39642;47.556;18.728;2022-09-27T01:47:41;10.35;;;4.50;;
51248;SDS011;39642;47.556;18.728;2022-09-27T01:50:15;10.88;;;4.70;;
51248;SDS011;39642;47.556;18.728;2022-09-27T01:55:41;10.88;;;4.60;;
51248;SDS011;39642;47.556;18.728;2022-09-27T01:58:13;11.02;;;4.82;;
51248;SDS011;39642;47.556;18.728;2022-09-27T02:00:47;11.18;;;4.62;;
51248;SDS011;39642;47.556;18.728;2022-09-27T02:03:17;11.27;;;4.55;;
51248;SDS011;39642;47.556;18.728;2022-09-27T02:05:55;11.35;;;4.37;;
51248;SDS011;39642;47.556;18.728;2022-09-27T02:08:45;10.80;;;4.55;;
51248;SDS011;39642;47.556;18.728;2022-09-27T02:11:18;10.88;;;4.70;;
51248;SDS011;39642;47.556;18.728;2022-09-27T02:13:46;10.95;;;4.40;;
51248;SDS011;39642;47.556;18.728;2022-09-27T02:24:40;10.85;;;4.43;;
51248;SDS011;39642;47.556;18.728;2022-09-27T02:27:23;11.35;;;4.78;;
51248;SDS011;39642;47.556;18.728;2022-09-27T02:29:59;11.20;;;4.87;;
51248;SDS011;39642;47.556;18.728;2022-09-27T02:32:31;11.38;;;4.32;;
51248;SDS011;39642;47.556;18.728;2022-09-27T02:35:00;10.70;;;4.60;;
51248;SDS011;39642;47.556;18.728;2022-09-27T02:37:31;10.88;;;4.25;;
51248;SDS011;39642;47.556;18.728;2022-09-27T02:39:58;10.85;;;4.53;;
51248;SDS011;39642;47.556;18.728;2022-09-27T02:42:25;12.57;;;4.62;;
51248;SDS011;39642;47.556;18.728;2022-09-27T02:44:52;10.63;;;4.60;;
51248;SDS011;39642;47.556;18.728;2022-09-27T02:53:09;10.10;;;4.25;;
51248;SDS011;39642;47.556;18.728;2022-09-27T03:01:01;11.25;;;4.10;;
51248;SDS011;39642;47.556;18.728;2022-09-27T03:06:05;11.02;;;4.55;;
51248;SDS011;39642;47.556;18.728;2022-09-27T03:08:35;11.07;;;4.50;;
51248;SDS011;39642;47.556;18.728;2022-09-27T03:11:02;10.15;;;4.15;;
51248;SDS011;39642;47.556;18.728;2022-09-27T03:13:28;11.73;;;4.53;;
51248;SDS011;39642;47.556;18.728;2022-09-27T03:15:55;10.75;;;4.47;;
51248;SDS011;39642;47.556;18.728;2022-09-27T03:18:21;11.05;;;4.32;;
51248;SDS011;39642;47.556;18.728;2022-09-27T03:20:46;10.48;;;4.30;;
51248;SDS011;39642;47.556;18.728;2022-09-27T03:23:12;10.52;;;4.20;;
51248;SDS011;39642;47.556;18.728;2022-09-27T03:25:39;10.25;;;4.37;;
51248;SDS011;39642;47.556;18.728;2022-09-27T03:28:05;10.63;;;4.20;;
51248;SDS011;39642;47.556;18.728;2022-09-27T03:30:31;10.88;;;4.40;;
51248;SDS011;39642;47.556;18.728;2022-09-27T03:32:57;8.80;;;3.75;;
51248;SDS011;39642;47.556;18.728;2022-09-27T03:35:23;10.10;;;3.95;;
51248;SDS011;39642;47.556;18.728;2022-09-27T03:37:48;10.70;;;4.37;;
51248;SDS011;39642;47.556;18.728;2022-09-27T03:40:14;9.90;;;4.28;;
51248;SDS011;39642;47.556;18.728;2022-09-27T03:42:40;10.65;;;4.37;;
51248;SDS011;39642;47.556;18.728;2022-09-27T03:45:06;10.60;;;4.22;;
51248;SDS011;39642;47.556;18.728;2022-09-27T03:47:32;10.73;;;4.30;;
51248;SDS011;39642;47.556;18.728;2022-09-27T03:49:58;10.77;;;4.50;;
51248;SDS011;39642;47.556;18.728;2022-09-27T03:52:24;10.73;;;4.00;;
51248;SDS011;39642;47.556;18.728;2022-09-27T03:54:50;10.32;;;4.12;;
51248;SDS011;39642;47.556;18.728;2022-09-27T03:57:16;11.80;;;4.03;;
51248;SDS011;39642;47.556;18.728;2022-09-27T03:59:42;10.07;;;4.05;;
51248;SDS011;39642;47.556;18.728;2022-09-27T04:02:08;9.50;;;3.83;;
51248;SDS011;39642;47.556;18.728;2022-09-27T04:04:34;10.68;;;4.18;;
51248;SDS011;39642;47.556;18.728;2022-09-27T04:06:59;12.00;;;4.60;;
51248;SDS011;39642;47.556;18.728;2022-09-27T04:09:25;10.52;;;4.28;;
51248;SDS011;39642;47.556;18.728;2022-09-27T04:11:51;10.63;;;4.22;;
51248;SDS011;39642;47.556;18.728;2022-09-27T04:14:17;14.60;;;4.40;;
51248;SDS011;39642;47.556;18.728;2022-09-27T04:16:43;11.20;;;4.25;;
51248;SDS011;39642;47.556;18.728;2022-09-27T04:19:09;10.02;;;3.90;;
51248;SDS011;39642;47.556;18.728;2022-09-27T04:21:35;10.98;;;4.50;;
51248;SDS011;39642;47.556;18.728;2022-09-27T04:24:01;10.15;;;4.00;;
51248;SDS011;39642;47.556;18.728;2022-09-27T04:26:27;9.50;;;3.62;;
51248;SDS011;39642;47.556;18.728;2022-09-27T04:28:53;9.77;;;4.10;;
51248;SDS011;39642;47.556;18.728;2022-09-27T04:31:19;9.90;;;4.10;;
51248;SDS011;39642;47.556;18.728;2022-09-27T04:33:45;10.63;;;4.28;;
51248;SDS011;39642;47.556;18.728;2022-09-27T04:36:14;10.45;;;4.07;;
51248;SDS011;39642;47.556;18.728;2022-09-27T04:38:53;9.43;;;3.97;;
51248;SDS011;39642;47.556;18.728;2022-09-27T04:41:21;9.70;;;3.85;;
51248;SDS011;39642;47.556;18.728;2022-09-27T04:43:48;10.55;;;4.12;;
51248;SDS011;39642;47.556;18.728;2022-09-27T04:46:15;10.65;;;4.37;;
51248;SDS011;39642;47.556;18.728;2022-09-27T04:48:41;10.73;;;3.65;;
51248;SDS011;39642;47.556;18.728;2022-09-27T04:51:08;10.70;;;3.92;;
51248;SDS011;39642;47.556;18.728;2022-09-27T04:53:34;11.05;;;4.05;;
51248;SDS011;39642;47.556;18.728;2022-09-27T04:56:01;11.35;;;4.18;;
51248;SDS011;39642;47.556;18.728;2022-09-27T04:58:31;10.10;;;4.00;;
51248;SDS011;39642;47.556;18.728;2022-09-27T05:01:00;11.93;;;3.95;;
51248;SDS011;39642;47.556;18.728;2022-09-27T05:03:29;10.65;;;3.78;;
51248;SDS011;39642;47.556;18.728;2022-09-27T05:05:55;10.82;;;4.25;;
51248;SDS011;39642;47.556;18.728;2022-09-27T05:08:22;9.10;;;3.67;;
51248;SDS011;39642;47.556;18.728;2022-09-27T05:10:48;10.60;;;3.42;;
51248;SDS011;39642;47.556;18.728;2022-09-27T05:13:14;13.73;;;4.30;;
51248;SDS011;39642;47.556;18.728;2022-09-27T05:15:40;11.98;;;3.92;;
51248;SDS011;39642;47.556;18.728;2022-09-27T05:18:07;13.45;;;4.10;;
51248;SDS011;39642;47.556;18.728;2022-09-27T05:20:34;16.23;;;4.65;;
51248;SDS011;39642;47.556;18.728;2022-09-27T05:23:02;16.10;;;5.60;;
51248;SDS011;39642;47.556;18.728;2022-09-27T05:25:29;15.55;;;4.70;;
51248;SDS011;39642;47.556;18.728;2022-09-27T05:27:56;16.98;;;5.40;;
51248;SDS011;39642;47.556;18.728;2022-09-27T05:30:23;22.87;;;6.00;;
51248;SDS011;39642;47.556;18.728;2022-09-27T05:32:50;27.15;;;7.30;;
51248;SDS011;39642;47.556;18.728;2022-09-27T05:35:16;26.42;;;5.80;;
51248;SDS011;39642;47.556;18.728;2022-09-27T05:37:50;22.90;;;5.70;;
51248;SDS011;39642;47.556;18.728;2022-09-27T05:40:20;18.10;;;4.97;;
51248;SDS011;39642;47.556;18.728;2022-09-27T05:42:53;17.05;;;4.95;;
51248;SDS011;39642;47.556;18.728;2022-09-27T05:45:21;15.70;;;5.30;;
51248;SDS011;39642;47.556;18.728;2022-09-27T05:47:55;20.73;;;5.12;;
51248;SDS011;39642;47.556;18.728;2022-09-27T05:50:23;15.43;;;5.12;;
51248;SDS011;39642;47.556;18.728;2022-09-27T05:52:50;19.27;;;5.32;;
51248;SDS011;39642;47.556;18.728;2022-09-27T05:55:16;22.15;;;6.37;;
51248;SDS011;39642;47.556;18.728;2022-09-27T05:57:52;19.75;;;5.53;;
51248;SDS011;39642;47.556;18.728;2022-09-27T06:00:19;15.40;;;5.30;;
51248;SDS011;39642;47.556;18.728;2022-09-27T06:02:51;19.40;;;5.62;;
51248;SDS011;39642;47.556;18.728;2022-09-27T06:05:18;19.87;;;4.68;;
51248;SDS011;39642;47.556;18.728;2022-09-27T06:07:44;15.15;;;4.65;;
51248;SDS011;39642;47.556;18.728;2022-09-27T06:10:10;16.15;;;5.12;;
51248;SDS011;39642;47.556;18.728;2022-09-27T06:12:36;15.45;;;5.03;;
51248;SDS011;39642;47.556;18.728;2022-09-27T06:15:03;14.85;;;5.47;;
51248;SDS011;39642;47.556;18.728;2022-09-27T06:17:29;14.05;;;5.40;;
51248;SDS011;39642;47.556;18.728;2022-09-27T06:19:58;15.73;;;4.85;;
51248;SDS011;39642;47.556;18.728;2022-09-27T06:22:24;16.45;;;5.00;;
51248;SDS011;39642;47.556;18.728;2022-09-27T06:24:50;18.90;;;5.62;;
51248;SDS011;39642;47.556;18.728;2022-09-27T06:27:15;18.58;;;5.53;;
51248;SDS011;39642;47.556;18.728;2022-09-27T06:29:43;13.80;;;4.62;;
51248;SDS011;39642;47.556;18.728;2022-09-27T06:32:09;15.63;;;4.93;;
51248;SDS011;39642;47.556;18.728;2022-09-27T06:34:35;18.48;;;5.68;;
51248;SDS011;39642;47.556;18.728;2022-09-27T06:37:01;19.23;;;5.80;;
51248;SDS011;39642;47.556;18.728;2022-09-27T06:39:27;14.15;;;5.18;;
51248;SDS011;39642;47.556;18.728;2022-09-27T06:41:54;12.40;;;4.87;;
51248;SDS011;39642;47.556;18.728;2022-09-27T06:44:24;15.55;;;4.57;;
51248;SDS011;39642;47.556;18.728;2022-09-27T06:46:51;16.45;;;5.15;;
51248;SDS011;39642;47.556;18.728;2022-09-27T06:49:18;17.90;;;5.85;;
51248;SDS011;39642;47.556;18.728;2022-09-27T06:51:44;21.20;;;6.10;;
51248;SDS011;39642;47.556;18.728;2022-09-27T06:54:10;17.73;;;5.50;;
51248;SDS011;39642;47.556;18.728;2022-09-27T06:56:36;19.87;;;6.28;;
51248;SDS011;39642;47.556;18.728;2022-09-27T06:59:02;20.27;;;5.12;;
51248;SDS011;39642;47.556;18.728;2022-09-27T07:01:47;22.65;;;6.47;;
51248;SDS011;39642;47.556;18.728;2022-09-27T07:04:13;20.48;;;4.87;;
51248;SDS011;39642;47.556;18.728;2022-09-27T07:06:40;18.45;;;5.10;;
51248;SDS011;39642;47.556;18.728;2022-09-27T07:09:06;24.92;;;5.95;;
51248;SDS011;39642;47.556;18.728;2022-09-27T07:11:35;21.00;;;5.45;;
51248;SDS011;39642;47.556;18.728;2022-09-27T07:14:02;22.13;;;6.30;;
51248;SDS011;39642;47.556;18.728;2022-09-27T07:16:29;24.12;;;6.00;;
51248;SDS011;39642;47.556;18.728;2022-09-27T07:18:59;17.58;;;5.35;;
51248;SDS011;39642;47.556;18.728;2022-09-27T07:21:25;23.35;;;6.35;;
51248;SDS011;39642;47.556;18.728;2022-09-27T07:23:51;22.83;;;6.00;;
51248;SDS011;39642;47.556;18.728;2022-09-27T07:26:17;27.62;;;5.15;;
51248;SDS011;39642;47.556;18.728;2022-09-27T07:28:43;20.05;;;6.30;;
51248;SDS011;39642;47.556;18.728;2022-09-27T07:31:10;26.20;;;5.55;;
51248;SDS011;39642;47.556;18.728;2022-09-27T07:45:22;30.50;;;7.78;;
51248;SDS011;39642;47.556;18.728;2022-09-27T07:47:49;30.15;;;8.82;;
51248;SDS011;39642;47.556;18.728;2022-09-27T07:50:15;29.05;;;8.95;;
51248;SDS011;39642;47.556;18.728;2022-09-27T07:52:43;32.00;;;9.45;;
51248;SDS011;39642;47.556;18.728;2022-09-27T07:55:11;34.15;;;10.02;;
51248;SDS011;39642;47.556;18.728;2022-09-27T07:57:38;41.65;;;9.98;;
51248;SDS011;39642;47.556;18.728;2022-09-27T08:00:06;23.45;;;7.10;;
51248;SDS011;39642;47.556;18.728;2022-09-27T08:02:34;24.77;;;8.50;;
51248;SDS011;39642;47.556;18.728;2022-09-27T08:05:00;27.20;;;8.13;;
51248;SDS011;39642;47.556;18.728;2022-09-27T08:07:27;25.75;;;8.27;;
51248;SDS011;39642;47.556;18.728;2022-09-27T08:09:54;46.00;;;9.13;;
51248;SDS011;39642;47.556;18.728;2022-09-27T08:12:20;27.13;;;8.68;;
51248;SDS011;39642;47.556;18.728;2022-09-27T08:14:47;22.70;;;9.38;;
51248;SDS011;39642;47.556;18.728;2022-09-27T08:17:13;21.23;;;8.32;;
51248;SDS011;39642;47.556;18.728;2022-09-27T08:19:40;23.38;;;8.73;;
51248;SDS011;39642;47.556;18.728;2022-09-27T08:22:06;23.80;;;9.32;;
51248;SDS011;39642;47.556;18.728;2022-09-27T08:24:32;21.33;;;8.95;;
51248;SDS011;39642;47.556;18.728;2022-09-27T08:26:59;21.33;;;8.90;;
51248;SDS011;39642;47.556;18.728;2022-09-27T08:29:25;22.08;;;9.20;;
51248;SDS011;39642;47.556;18.728;2022-09-27T08:31:51;22.00;;;10.00;;
51248;SDS011;39642;47.556;18.728;2022-09-27T08:34:18;20.42;;;9.30;;
51248;SDS011;39642;47.556;18.728;2022-09-27T08:36:45;22.30;;;8.98;;
51248;SDS011;39642;47.556;18.728;2022-09-27T08:39:10;20.08;;;8.63;;
51248;SDS011;39642;47.556;18.728;2022-09-27T08:41:43;25.02;;;11.02;;
51248;SDS011;39642;47.556;18.728;2022-09-27T08:49:35;33.03;;;10.13;;
51248;SDS011;39642;47.556;18.728;2022-09-27T08:52:03;38.40;;;10.48;;
51248;SDS011;39642;47.556;18.728;2022-09-27T08:54:32;32.45;;;10.23;;
51248;SDS011;39642;47.556;18.728;2022-09-27T08:57:04;33.90;;;10.10;;
51248;SDS011;39642;47.556;18.728;2022-09-27T08:59:48;31.58;;;9.80;;
51248;SDS011;39642;47.556;18.728;2022-09-27T09:02:20;23.25;;;9.23;;
51248;SDS011;39642;47.556;18.728;2022-09-27T09:04:50;21.98;;;9.70;;
51248;SDS011;39642;47.556;18.728;2022-09-27T09:30:22;25.15;;;7.43;;
51248;SDS011;39642;47.556;18.728;2022-09-27T09:33:03;26.25;;;8.25;;
51248;SDS011;39642;47.556;18.728;2022-09-27T09:38:11;21.35;;;7.00;;
51248;SDS011;39642;47.556;18.728;2022-09-27T09:40:45;19.27;;;7.43;;
51248;SDS011;39642;47.556;18.728;2022-09-27T09:43:20;30.23;;;7.72;;
51248;SDS011;39642;47.556;18.728;2022-09-27T09:45:58;29.52;;;8.50;;
51248;SDS011;39642;47.556;18.728;2022-09-27T09:51:22;30.13;;;7.40;;
51248;SDS011;39642;47.556;18.728;2022-09-27T09:56:32;32.67;;;8.30;;
51248;SDS011;39642;47.556;18.728;2022-09-27T09:59:04;26.45;;;8.30;;
51248;SDS011;39642;47.556;18.728;2022-09-27T10:01:40;27.23;;;7.07;;
51248;SDS011;39642;47.556;18.728;2022-09-27T10:04:14;20.12;;;6.82;;
51248;SDS011;39642;47.556;18.728;2022-09-27T10:06:45;23.75;;;7.57;;
51248;SDS011;39642;47.556;18.728;2022-09-27T10:09:12;26.70;;;8.05;;
51248;SDS011;39642;47.556;18.728;2022-09-27T10:11:44;27.25;;;7.47;;
51248;SDS011;39642;47.556;18.728;2022-09-27T10:14:12;26.65;;;7.47;;
51248;SDS011;39642;47.556;18.728;2022-09-27T10:16:43;21.33;;;7.50;;
51248;SDS011;39642;47.556;18.728;2022-09-27T10:19:16;19.30;;;6.93;;
51248;SDS011;39642;47.556;18.728;2022-09-27T10:21:50;18.75;;;6.25;;
51248;SDS011;39642;47.556;18.728;2022-09-27T10:24:17;22.27;;;7.07;;
51248;SDS011;39642;47.556;18.728;2022-09-27T10:26:46;23.08;;;7.15;;
51248;SDS011;39642;47.556;18.728;2022-09-27T10:31:46;29.83;;;7.22;;
51248;SDS011;39642;47.556;18.728;2022-09-27T10:34:20;26.55;;;6.70;;
51248;SDS011;39642;47.556;18.728;2022-09-27T10:37:00;23.55;;;6.60;;
51248;SDS011;39642;47.556;18.728;2022-09-27T10:39:29;30.50;;;7.32;;
51248;SDS011;39642;47.556;18.728;2022-09-27T10:41:55;35.95;;;7.57;;
51248;SDS011;39642;47.556;18.728;2022-09-27T10:44:27;30.25;;;7.47;;
51248;SDS011;39642;47.556;18.728;2022-09-27T10:46:57;29.20;;;7.65;;
51248;SDS011;39642;47.556;18.728;2022-09-27T10:51:59;30.62;;;6.95;;
51248;SDS011;39642;47.556;18.728;2022-09-27T10:54:29;24.02;;;6.87;;
51248;SDS011;39642;47.556;18.728;2022-09-27T10:57:02;29.40;;;7.18;;
51248;SDS011;39642;47.556;18.728;2022-09-27T10:59:33;25.67;;;6.40;;
51248;SDS011;39642;47.556;18.728;2022-09-27T11:02:04;24.08;;;6.18;;
51248;SDS011;39642;47.556;18.728;2022-09-27T11:04:41;30.02;;;6.68;;
51248;SDS011;39642;47.556;18.728;2022-09-27T11:07:17;33.33;;;7.22;;
51248;SDS011;39642;47.556;18.728;2022-09-27T11:09:55;28.38;;;7.10;;
51248;SDS011;39642;47.556;18.728;2022-09-27T11:12:27;29.75;;;6.57;;
51248;SDS011;39642;47.556;18.728;2022-09-27T11:14:56;37.58;;;7.25;;
51248;SDS011;39642;47.556;18.728;2022-09-27T11:17:29;27.05;;;7.70;;
51248;SDS011;39642;47.556;18.728;2022-09-27T11:20:06;32.60;;;7.57;;
51248;SDS011;39642;47.556;18.728;2022-09-27T11:28:28;28.55;;;7.10;;
51248;SDS011;39642;47.556;18.728;2022-09-27T11:31:12;39.55;;;8.00;;
51248;SDS011;39642;47.556;18.728;2022-09-27T11:36:55;30.55;;;8.50;;
51248;SDS011;39642;47.556;18.728;2022-09-27T11:45:03;27.40;;;7.57;;
51248;SDS011;39642;47.556;18.728;2022-09-27T11:57:05;30.52;;;7.87;;
51248;SDS011;39642;47.556;18.728;2022-09-27T12:06:01;19.42;;;6.97;;
51248;SDS011;39642;47.556;18.728;2022-09-27T12:14:03;32.22;;;9.00;;
51248;SDS011;39642;47.556;18.728;2022-09-27T12:16:36;22.33;;;8.40;;
51248;SDS011;39642;47.556;18.728;2022-09-27T12:19:05;27.10;;;8.82;;
51248;SDS011;39642;47.556;18.728;2022-09-27T12:21:46;26.20;;;8.13;;
51248;SDS011;39642;47.556;18.728;2022-09-27T12:24:20;27.65;;;8.25;;
51248;SDS011;39642;47.556;18.728;2022-09-27T12:26:52;26.50;;;8.85;;
51248;SDS011;39642;47.556;18.728;2022-09-27T12:34:18;31.95;;;9.20;;
51248;SDS011;39642;47.556;18.728;2022-09-27T12:37:13;27.10;;;8.07;;
51248;SDS011;39642;47.556;18.728;2022-09-27T12:39:47;25.12;;;7.85;;
51248;SDS011;39642;47.556;18.728;2022-09-27T12:45:19;24.58;;;8.40;;
51248;SDS011;39642;47.556;18.728;2022-09-27T12:48:01;22.55;;;7.87;;
51248;SDS011;39642;47.556;18.728;2022-09-27T12:50:32;32.35;;;9.02;;
51248;SDS011;39642;47.556;18.728;2022-09-27T12:53:04;21.90;;;7.07;;
51248;SDS011;39642;47.556;18.728;2022-09-27T12:58:36;23.92;;;8.07;;
51248;SDS011;39642;47.556;18.728;2022-09-27T13:03:59;25.42;;;8.05;;
51248;SDS011;39642;47.556;18.728;2022-09-27T13:12:10;21.45;;;7.60;;
51248;SDS011;39642;47.556;18.728;2022-09-27T13:15:42;30.23;;;8.70;;
51248;SDS011;39642;47.556;18.728;2022-09-27T13:17:53;40.05;;;10.15;;
51248;SDS011;39642;47.556;18.728;2022-09-27T13:22:56;24.70;;;10.07;;
51248;SDS011;39642;47.556;18.728;2022-09-27T13:31:02;38.55;;;11.90;;
51248;SDS011;39642;47.556;18.728;2022-09-27T13:47:14;35.15;;;8.40;;
51248;SDS011;39642;47.556;18.728;2022-09-27T13:50:03;36.15;;;9.10;;
51248;SDS011;39642;47.556;18.728;2022-09-27T13:55:39;28.70;;;7.82;;
51248;SDS011;39642;47.556;18.728;2022-09-27T14:00:47;31.85;;;8.20;;
51248;SDS011;39642;47.556;18.728;2022-09-27T14:06:25;29.50;;;7.22;;
51248;SDS011;39642;47.556;18.728;2022-09-27T14:08:57;30.70;;;6.78;;
51248;SDS011;39642;47.556;18.728;2022-09-27T14:11:35;28.33;;;6.78;;
51248;SDS011;39642;47.556;18.728;2022-09-27T14:14:04;40.12;;;6.78;;
51248;SDS011;39642;47.556;18.728;2022-09-27T14:16:33;44.25;;;7.10;;
51248;SDS011;39642;47.556;18.728;2022-09-27T14:19:01;46.72;;;8.32;;
51248;SDS011;39642;47.556;18.728;2022-09-27T14:21:31;30.88;;;6.57;;
51248;SDS011;39642;47.556;18.728;2022-09-27T14:26:43;44.30;;;7.82;;
51248;SDS011;39642;47.556;18.728;2022-09-27T14:29:20;43.33;;;7.53;;
51248;SDS011;39642;47.556;18.728;2022-09-27T14:32:00;32.63;;;5.72;;
51248;SDS011;39642;47.556;18.728;2022-09-27T14:34:30;26.23;;;5.72;;
51248;SDS011;39642;47.556;18.728;2022-09-27T14:36:56;21.67;;;5.80;;
51248;SDS011;39642;47.556;18.728;2022-09-27T14:39:42;25.33;;;6.10;;
51248;SDS011;39642;47.556;18.728;2022-09-27T14:42:18;25.20;;;4.70;;
51248;SDS011;39642;47.556;18.728;2022-09-27T14:44:46;21.62;;;5.10;;
51248;SDS011;39642;47.556;18.728;2022-09-27T14:52:57;17.65;;;4.22;;
51248;SDS011;39642;47.556;18.728;2022-09-27T14:55:26;18.27;;;4.32;;
51248;SDS011;39642;47.556;18.728;2022-09-27T14:57:56;15.10;;;3.80;;
51248;SDS011;39642;47.556;18.728;2022-09-27T15:00:24;15.30;;;4.30;;
51248;SDS011;39642;47.556;18.728;2022-09-27T15:02:57;15.73;;;3.65;;
51248;SDS011;39642;47.556;18.728;2022-09-27T15:05:28;14.43;;;3.72;;
51248;SDS011;39642;47.556;18.728;2022-09-27T15:07:57;14.38;;;3.10;;
51248;SDS011;39642;47.556;18.728;2022-09-27T15:10:26;13.70;;;3.40;;
51248;SDS011;39642;47.556;18.728;2022-09-27T15:12:55;14.23;;;3.22;;
51248;SDS011;39642;47.556;18.728;2022-09-27T15:15:26;12.37;;;3.80;;
51248;SDS011;39642;47.556;18.728;2022-09-27T15:17:56;13.75;;;4.05;;
51248;SDS011;39642;47.556;18.728;2022-09-27T15:20:25;14.68;;;4.00;;
51248;SDS011;39642;47.556;18.728;2022-09-27T15:22:53;13.88;;;3.47;;
51248;SDS011;39642;47.556;18.728;2022-09-27T15:30:38;13.38;;;3.05;;
51248;SDS011;39642;47.556;18.728;2022-09-27T15:33:06;12.80;;;3.45;;
51248;SDS011;39642;47.556;18.728;2022-09-27T15:35:49;14.87;;;3.60;;
51248;SDS011;39642;47.556;18.728;2022-09-27T15:38:32;12.35;;;3.20;;
51248;SDS011;39642;47.556;18.728;2022-09-27T15:46:01;11.57;;;2.83;;
51248;SDS011;39642;47.556;18.728;2022-09-27T15:51:43;11.95;;;2.85;;
51248;SDS011;39642;47.556;18.728;2022-09-27T15:54:10;10.88;;;2.40;;
51248;SDS011;39642;47.556;18.728;2022-09-27T15:56:37;14.93;;;3.08;;
51248;SDS011;39642;47.556;18.728;2022-09-27T15:59:04;13.73;;;3.08;;
51248;SDS011;39642;47.556;18.728;2022-09-27T16:01:32;9.93;;;3.00;;
51248;SDS011;39642;47.556;18.728;2022-09-27T16:03:58;11.80;;;2.65;;
51248;SDS011;39642;47.556;18.728;2022-09-27T16:06:25;14.85;;;2.62;;
51248;SDS011;39642;47.556;18.728;2022-09-27T16:08:52;12.55;;;2.85;;
51248;SDS011;39642;47.556;18.728;2022-09-27T16:11:19;9.20;;;2.60;;
51248;SDS011;39642;47.556;18.728;2022-09-27T16:13:44;13.05;;;2.90;;
51248;SDS011;39642;47.556;18.728;2022-09-27T16:16:14;12.10;;;2.50;;
51248;SDS011;39642;47.556;18.728;2022-09-27T16:18:43;11.63;;;2.62;;
51248;SDS011;39642;47.556;18.728;2022-09-27T16:21:10;9.27;;;2.70;;
51248;SDS011;39642;47.556;18.728;2022-09-27T16:23:36;10.25;;;2.62;;
51248;SDS011;39642;47.556;18.728;2022-09-27T16:26:02;8.82;;;2.60;;
51248;SDS011;39642;47.556;18.728;2022-09-27T16:28:30;11.10;;;3.10;;
51248;SDS011;39642;47.556;18.728;2022-09-27T16:31:00;11.60;;;3.12;;
51248;SDS011;39642;47.556;18.728;2022-09-27T16:33:28;11.43;;;2.50;;
51248;SDS011;39642;47.556;18.728;2022-09-27T16:35:54;9.27;;;2.65;;
51248;SDS011;39642;47.556;18.728;2022-09-27T16:38:20;12.57;;;2.70;;
51248;SDS011;39642;47.556;18.728;2022-09-27T16:40:46;10.13;;;2.67;;
51248;SDS011;39642;47.556;18.728;2022-09-27T16:43:12;11.57;;;2.92;;
51248;SDS011;39642;47.556;18.728;2022-09-27T16:45:38;10.18;;;2.65;;
51248;SDS011;39642;47.556;18.728;2022-09-27T16:48:03;11.02;;;2.80;;
51248;SDS011;39642;47.556;18.728;2022-09-27T16:50:29;11.15;;;2.70;;
51248;SDS011;39642;47.556;18.728;2022-09-27T16:53:14;9.57;;;2.55;;
51248;SDS011;39642;47.556;18.728;2022-09-27T16:55:40;12.32;;;2.72;;
51248;SDS011;39642;47.556;18.728;2022-09-27T16:58:06;8.70;;;2.60;;
51248;SDS011;39642;47.556;18.728;2022-09-27T17:00:33;8.85;;;2.50;;
51248;SDS011;39642;47.556;18.728;2022-09-27T17:02:59;10.80;;;2.47;;
51248;SDS011;39642;47.556;18.728;2022-09-27T17:05:25;8.73;;;2.75;;
51248;SDS011;39642;47.556;18.728;2022-09-27T17:07:51;10.52;;;2.80;;
51248;SDS011;39642;47.556;18.728;2022-09-27T17:10:18;9.32;;;2.50;;
51248;SDS011;39642;47.556;18.728;2022-09-27T17:12:44;10.32;;;2.58;;
51248;SDS011;39642;47.556;18.728;2022-09-27T17:15:13;11.12;;;2.70;;
51248;SDS011;39642;47.556;18.728;2022-09-27T17:17:40;10.48;;;2.55;;
51248;SDS011;39642;47.556;18.728;2022-09-27T17:20:06;7.22;;;2.42;;
51248;SDS011;39642;47.556;18.728;2022-09-27T17:22:33;8.90;;;2.50;;
51248;SDS011;39642;47.556;18.728;2022-09-27T17:24:58;9.38;;;2.70;;
51248;SDS011;39642;47.556;18.728;2022-09-27T17:27:26;9.30;;;2.60;;
51248;SDS011;39642;47.556;18.728;2022-09-27T17:29:53;10.38;;;2.58;;
51248;SDS011;39642;47.556;18.728;2022-09-27T17:32:19;9.88;;;2.58;;
51248;SDS011;39642;47.556;18.728;2022-09-27T17:34:49;13.40;;;2.87;;
51248;SDS011;39642;47.556;18.728;2022-09-27T17:37:16;11.15;;;2.60;;
51248;SDS011;39642;47.556;18.728;2022-09-27T17:39:42;11.70;;;2.72;;
51248;SDS011;39642;47.556;18.728;2022-09-27T17:42:08;10.93;;;2.75;;
51248;SDS011;39642;47.556;18.728;2022-09-27T17:44:33;10.27;;;2.53;;
51248;SDS011;39642;47.556;18.728;2022-09-27T17:47:00;10.40;;;2.45;;
51248;SDS011;39642;47.556;18.728;2022-09-27T17:49:44;9.35;;;2.80;;
51248;SDS011;39642;47.556;18.728;2022-09-27T17:52:29;9.93;;;2.50;;
51248;SDS011;39642;47.556;18.728;2022-09-27T17:54:55;10.75;;;2.60;;
51248;SDS011;39642;47.556;18.728;2022-09-27T17:57:23;11.98;;;2.87;;
51248;SDS011;39642;47.556;18.728;2022-09-27T17:59:49;9.32;;;2.42;;
51248;SDS011;39642;47.556;18.728;2022-09-27T18:02:15;7.32;;;2.15;;
51248;SDS011;39642;47.556;18.728;2022-09-27T18:04:41;9.30;;;2.50;;
51248;SDS011;39642;47.556;18.728;2022-09-27T18:07:07;9.23;;;2.40;;
51248;SDS011;39642;47.556;18.728;2022-09-27T18:09:33;9.25;;;2.40;;
51248;SDS011;39642;47.556;18.728;2022-09-27T18:11:59;12.32;;;2.62;;
51248;SDS011;39642;47.556;18.728;2022-09-27T18:14:25;8.65;;;2.45;;
51248;SDS011;39642;47.556;18.728;2022-09-27T18:16:51;8.93;;;2.70;;
51248;SDS011;39642;47.556;18.728;2022-09-27T18:19:19;12.70;;;2.72;;